Time;durP1;ratioP1;P1;durP2;ratioP2;P2;SDS_P1;SDS_P2;PMS_P1;PMS_P2;Temp;Humidity;BMP_temperature;BMP_pressure;BME280_temperature;BME280_humidity;BME280_pressure;Samples;Min_cycle;Max_cycle;Signal;HPM_P1;HPM_P2
2023/08/24 00:00:57;;;;;;;468.42;442.88;;;27.50;99.90;;;;;;5031377;28;20032;-79
2023/08/24 00:03:23;;;;;;;421.15;398.88;;;27.40;99.90;;;;;;5031637;28;20466;-79
2023/08/24 00:05:49;;;;;;;472.23;446.13;;;27.40;99.90;;;;;;5031743;28;20036;-79
2023/08/24 00:08:15;;;;;;;472.40;446.67;;;27.40;99.90;;;;;;5032348;28;20121;-80
2023/08/24 00:10:43;;;;;;;595.65;560.05;;;27.30;99.90;;;;;;5032257;28;20410;-80
2023/08/24 00:13:09;;;;;;;506.35;478.02;;;27.30;99.90;;;;;;5030773;28;20513;-80
2023/08/24 00:15:36;;;;;;;721.03;674.38;;;27.20;99.90;;;;;;5031020;28;20038;-79
2023/08/24 00:18:02;;;;;;;714.05;667.42;;;27.20;99.90;;;;;;5031803;28;20037;-79
2023/08/24 00:20:28;;;;;;;647.42;607.08;;;27.00;99.90;;;;;;5031713;28;20479;-79
2023/08/24 00:22:55;;;;;;;640.47;600.50;;;26.80;99.90;;;;;;5032195;28;20036;-80
2023/08/24 00:25:21;;;;;;;640.53;601.13;;;26.90;99.90;;;;;;5035509;28;20036;-80
2023/08/24 00:27:47;;;;;;;636.80;596.80;;;26.80;99.90;;;;;;5035924;28;20033;-80
2023/08/24 00:30:13;;;;;;;636.05;595.90;;;26.70;99.90;;;;;;5034861;28;20517;-80
2023/08/24 00:32:39;;;;;;;518.35;489.00;;;26.80;99.90;;;;;;5033791;28;20037;-80
2023/08/24 00:35:06;;;;;;;506.77;477.77;;;26.80;99.90;;;;;;5035487;28;20414;-80
2023/08/24 00:37:33;;;;;;;503.27;474.55;;;26.70;99.90;;;;;;5035009;28;20057;-79
2023/08/24 00:40:04;;;;;;;341.75;324.27;;;26.70;99.90;;;;;;5035433;28;20494;-79
2023/08/24 00:42:31;;;;;;;370.60;350.88;;;26.60;99.90;;;;;;5034985;28;20049;-80
2023/08/24 00:44:58;;;;;;;298.60;283.92;;;26.60;99.90;;;;;;5034890;28;20056;-80
2023/08/24 00:47:24;;;;;;;300.33;285.13;;;26.50;99.90;;;;;;5034401;28;20045;-78
2023/08/24 00:49:51;;;;;;;291.13;276.65;;;26.40;99.90;;;;;;5033727;28;20483;-80
2023/08/24 00:52:17;;;;;;;316.55;300.88;;;26.40;99.90;;;;;;5033360;28;20387;-79
2023/08/24 00:54:43;;;;;;;350.50;332.58;;;26.40;99.90;;;;;;5034218;28;20029;-80
2023/08/24 00:57:09;;;;;;;439.45;415.73;;;26.40;99.90;;;;;;5034739;28;20049;-80
2023/08/24 00:59:35;;;;;;;417.30;394.75;;;26.40;99.90;;;;;;5033847;28;20474;-80
2023/08/24 01:02:01;;;;;;;406.00;384.08;;;26.40;99.90;;;;;;5032592;28;20049;-80
2023/08/24 01:04:28;;;;;;;453.13;426.75;;;26.40;99.90;;;;;;5033663;28;20379;-79
2023/08/24 01:06:54;;;;;;;504.10;474.40;;;26.30;99.90;;;;;;5034357;28;20040;-80
2023/08/24 01:09:20;;;;;;;457.38;431.23;;;26.30;99.90;;;;;;5034851;28;20033;-80
2023/08/24 01:12:04;;;;;;;454.95;428.45;;;26.40;99.90;;;;;;5032524;28;20053;-79
2023/08/24 01:14:30;;;;;;;405.63;382.75;;;26.40;99.90;;;;;;5033358;28;20025;-80
2023/08/24 01:16:58;;;;;;;427.48;403.30;;;26.30;99.90;;;;;;5033760;28;20037;-79
2023/08/24 01:19:53;;;;;;;530.28;499.17;;;26.40;99.90;;;;;;5033592;28;20021;-79
2023/08/24 01:22:25;;;;;;;449.58;424.70;;;26.50;99.90;;;;;;5025471;28;20042;-80
2023/08/24 01:24:55;;;;;;;428.77;405.20;;;26.60;99.90;;;;;;5034512;28;20471;-80
2023/08/24 01:27:21;;;;;;;426.88;403.00;;;26.60;99.90;;;;;;5033187;28;20026;-80
2023/08/24 01:29:48;;;;;;;448.27;423.13;;;26.40;99.90;;;;;;5033224;28;20367;-80
2023/08/24 01:32:14;;;;;;;427.95;404.35;;;26.30;99.90;;;;;;5033490;28;20068;-79
2023/08/24 01:34:40;;;;;;;433.30;409.38;;;26.20;99.90;;;;;;5033314;28;20021;-79
2023/08/24 01:37:07;;;;;;;384.70;364.17;;;26.20;99.90;;;;;;5033902;28;20033;-80
2023/08/24 01:39:39;;;;;;;398.02;376.48;;;26.10;99.90;;;;;;5034297;28;20033;-79
2023/08/24 01:42:06;;;;;;;424.02;400.50;;;26.00;99.90;;;;;;5032624;28;20049;-79
2023/08/24 01:44:34;;;;;;;466.27;439.48;;;25.90;99.90;;;;;;5032175;28;20033;-80
2023/08/24 01:47:02;;;;;;;449.67;424.30;;;25.90;99.90;;;;;;5031749;28;20052;-80
2023/08/24 01:49:28;;;;;;;476.35;448.70;;;25.90;99.90;;;;;;5033953;28;20029;-79
2023/08/24 01:51:54;;;;;;;513.95;482.73;;;25.90;99.90;;;;;;5032441;28;20537;-80
2023/08/24 01:54:20;;;;;;;532.42;501.05;;;26.00;99.90;;;;;;5032707;28;20030;-80
2023/08/24 01:56:46;;;;;;;554.20;521.00;;;26.10;99.90;;;;;;5031999;28;20403;-80
2023/08/24 01:59:13;;;;;;;522.17;491.33;;;26.20;99.90;;;;;;5024220;28;20040;-74
2023/08/24 02:01:39;;;;;;;548.30;515.20;;;26.30;99.90;;;;;;5026537;28;20037;-80
2023/08/24 02:04:05;;;;;;;550.70;517.03;;;26.40;99.90;;;;;;5031737;28;20052;-80
2023/08/24 02:06:31;;;;;;;495.20;466.20;;;26.30;99.90;;;;;;5032081;28;20025;-80
2023/08/24 02:08:57;;;;;;;514.83;484.02;;;26.50;99.90;;;;;;5032399;28;20040;-80
2023/08/24 02:11:23;;;;;;;546.75;513.50;;;26.50;99.90;;;;;;5032382;28;20029;-80
2023/08/24 02:13:49;;;;;;;565.75;531.35;;;26.60;99.90;;;;;;5031888;28;20505;-80
2023/08/24 02:16:15;;;;;;;568.67;533.83;;;26.50;99.90;;;;;;5031496;28;20045;-79
2023/08/24 02:18:42;;;;;;;462.15;435.60;;;26.60;99.90;;;;;;5032137;28;20525;-80
2023/08/24 02:21:10;;;;;;;361.42;341.98;;;26.60;99.90;;;;;;5020316;28;20447;-80
2023/08/24 02:23:36;;;;;;;426.63;403.20;;;26.60;99.90;;;;;;5032342;28;20053;-80
2023/08/24 02:26:03;;;;;;;461.85;436.13;;;26.60;99.90;;;;;;5031889;28;20029;-80
2023/08/24 02:28:29;;;;;;;597.28;560.92;;;26.60;99.90;;;;;;5031591;28;20029;-79
2023/08/24 02:30:59;;;;;;;626.58;586.95;;;26.60;99.90;;;;;;5031286;28;20483;-80
2023/08/24 02:33:25;;;;;;;603.35;565.97;;;26.40;99.90;;;;;;5032019;28;20466;-79
2023/08/24 02:35:51;;;;;;;379.60;359.35;;;26.20;99.90;;;;;;5031735;28;20029;-80
2023/08/24 02:38:17;;;;;;;308.27;292.20;;;26.30;99.90;;;;;;5032989;28;20048;-79
2023/08/24 02:40:44;;;;;;;280.40;266.10;;;26.40;99.90;;;;;;5032988;28;20036;-80
2023/08/24 02:43:10;;;;;;;355.40;337.10;;;26.40;99.90;;;;;;5032572;28;20033;-80
2023/08/24 02:45:36;;;;;;;325.75;309.25;;;26.40;99.90;;;;;;5032242;28;20513;-80
2023/08/24 02:48:02;;;;;;;290.73;276.15;;;26.50;99.90;;;;;;5033052;28;20029;-80
2023/08/24 02:50:28;;;;;;;275.50;261.70;;;26.50;99.90;;;;;;5032512;28;20498;-80
2023/08/24 02:52:54;;;;;;;285.00;270.80;;;26.50;99.90;;;;;;5032729;28;20060;-80
2023/08/24 02:55:20;;;;;;;382.45;362.05;;;26.50;99.90;;;;;;5032483;28;20387;-80
2023/08/24 02:57:46;;;;;;;360.00;340.98;;;26.50;99.90;;;;;;5032453;28;20034;-80
2023/08/24 03:00:13;;;;;;;370.95;351.42;;;26.50;99.90;;;;;;5032214;28;20033;-80
2023/08/24 03:02:39;;;;;;;253.68;240.95;;;26.50;99.90;;;;;;5032626;28;20032;-80
2023/08/24 03:05:06;;;;;;;357.05;338.00;;;26.50;99.90;;;;;;5032662;28;20029;-80
2023/08/24 03:07:32;;;;;;;288.77;273.75;;;26.50;99.90;;;;;;5032529;28;20474;-80
2023/08/24 03:09:58;;;;;;;245.23;232.63;;;26.50;99.90;;;;;;5032583;28;20029;-80
2023/08/24 03:12:24;;;;;;;248.05;235.55;;;26.40;99.90;;;;;;5031780;28;20041;-80
2023/08/24 03:14:54;;;;;;;210.23;199.38;;;26.40;99.90;;;;;;5032489;28;20491;-80
2023/08/24 03:17:21;;;;;;;220.65;209.52;;;26.30;99.90;;;;;;5032164;28;20049;-80
2023/08/24 03:19:47;;;;;;;262.50;249.40;;;26.30;99.90;;;;;;5032502;28;20033;-80
2023/08/24 03:22:13;;;;;;;280.52;266.27;;;26.40;99.90;;;;;;5032511;28;20045;-80
2023/08/24 03:24:39;;;;;;;292.80;277.83;;;26.20;99.90;;;;;;5032401;28;20037;-80
2023/08/24 03:27:05;;;;;;;250.20;237.32;;;26.00;99.90;;;;;;5031947;28;20029;-80
2023/08/24 03:29:31;;;;;;;266.15;252.60;;;25.90;99.90;;;;;;5032328;28;20085;-79
2023/08/24 03:31:57;;;;;;;163.52;155.10;;;25.90;99.90;;;;;;5031543;28;20041;-80
2023/08/24 03:34:23;;;;;;;191.20;181.55;;;25.90;99.90;;;;;;5032702;28;20018;-79
2023/08/24 03:36:49;;;;;;;167.13;158.55;;;26.00;99.90;;;;;;5031879;28;20033;-79
2023/08/24 03:39:16;;;;;;;178.93;169.55;;;25.90;99.90;;;;;;5032198;28;20471;-80
2023/08/24 03:41:42;;;;;;;135.82;128.65;;;26.00;99.90;;;;;;5031612;28;20039;-80
2023/08/24 03:44:08;;;;;;;184.35;174.48;;;26.10;99.90;;;;;;5032168;28;20025;-79
2023/08/24 03:46:34;;;;;;;246.25;233.70;;;26.10;99.90;;;;;;5031418;28;20057;-79
2023/08/24 03:49:00;;;;;;;271.40;257.48;;;26.10;99.90;;;;;;5032110;28;20390;-80
2023/08/24 03:51:26;;;;;;;225.80;214.32;;;26.00;99.90;;;;;;5032028;28;20045;-79
2023/08/24 03:53:53;;;;;;;199.75;189.63;;;26.10;99.90;;;;;;5031883;28;20068;-80
2023/08/24 03:56:19;;;;;;;182.05;172.52;;;26.00;99.90;;;;;;5031312;28;20030;-80
2023/08/24 03:58:45;;;;;;;165.48;156.93;;;25.80;99.90;;;;;;5034023;28;20045;-78
2023/08/24 04:01:12;;;;;;;137.45;130.45;;;25.70;99.90;;;;;;5035207;28;20041;-80
2023/08/24 04:03:38;;;;;;;132.02;125.10;;;25.50;99.90;;;;;;5035882;28;20036;-80
2023/08/24 04:06:05;;;;;;;131.38;124.75;;;25.40;99.90;;;;;;5034713;28;20393;-80
2023/08/24 04:08:31;;;;;;;132.20;125.45;;;25.50;99.90;;;;;;5035262;28;20033;-80
2023/08/24 04:10:57;;;;;;;105.63;100.10;;;25.50;99.90;;;;;;5034361;28;20356;-80
2023/08/24 04:13:23;;;;;;;83.63;79.18;;;25.40;99.90;;;;;;5035756;28;20033;-79
2023/08/24 04:15:49;;;;;;;112.32;106.32;;;25.50;99.90;;;;;;5035082;28;20025;-80
2023/08/24 04:18:15;;;;;;;114.88;108.75;;;25.60;99.90;;;;;;5035888;28;20041;-80
2023/08/24 04:20:42;;;;;;;100.28;95.13;;;25.50;99.90;;;;;;5035359;28;20033;-80
2023/08/24 04:23:10;;;;;;;106.80;101.30;;;25.30;99.90;;;;;;5035630;28;20041;-80
2023/08/24 04:25:39;;;;;;;102.85;97.40;;;25.30;99.90;;;;;;5035069;28;20021;-80
2023/08/24 04:28:05;;;;;;;95.03;90.00;;;25.30;99.90;;;;;;5035609;28;20045;-78
2023/08/24 04:30:32;;;;;;;113.70;107.72;;;25.50;99.90;;;;;;5034733;28;20033;-79
2023/08/24 04:32:59;;;;;;;96.68;91.43;;;25.70;99.90;;;;;;5035354;28;20076;-80
2023/08/24 04:35:26;;;;;;;82.78;78.18;;;25.70;99.90;;;;;;5035495;28;20060;-79
2023/08/24 04:37:52;;;;;;;78.13;74.13;;;25.30;99.90;;;;;;5035580;28;20053;-79
2023/08/24 04:40:19;;;;;;;133.57;126.72;;;25.10;99.90;;;;;;5035133;28;20060;-80
2023/08/24 04:42:45;;;;;;;116.38;110.43;;;25.20;99.90;;;;;;5035694;28;20053;-80
2023/08/24 04:45:11;;;;;;;113.07;107.22;;;25.20;99.90;;;;;;5034600;28;20040;-79
2023/08/24 04:47:37;;;;;;;107.05;101.05;;;25.10;99.90;;;;;;5034799;28;20490;-80
2023/08/24 04:50:03;;;;;;;109.50;103.43;;;24.90;99.90;;;;;;5035127;28;20034;-80
2023/08/24 04:52:29;;;;;;;165.13;156.75;;;24.70;99.90;;;;;;5034878;28;20057;-79
2023/08/24 04:54:56;;;;;;;194.35;184.50;;;24.70;99.90;;;;;;5034791;28;20486;-80
2023/08/24 04:57:22;;;;;;;229.27;217.27;;;24.80;99.90;;;;;;5034906;28;20052;-80
2023/08/24 04:59:48;;;;;;;160.07;151.80;;;25.00;99.90;;;;;;5035005;28;20037;-80
2023/08/24 05:02:14;;;;;;;186.52;177.07;;;25.20;99.90;;;;;;5034338;28;20049;-80
2023/08/24 05:04:40;;;;;;;201.68;191.23;;;25.30;99.90;;;;;;5034914;28;20029;-79
2023/08/24 05:07:06;;;;;;;193.07;183.30;;;25.30;99.90;;;;;;5034624;28;20041;-80
2023/08/24 05:09:32;;;;;;;144.75;137.57;;;25.40;99.90;;;;;;5033154;28;20033;-79
2023/08/24 05:11:58;;;;;;;141.30;134.13;;;25.40;99.90;;;;;;5034377;28;20041;-80
2023/08/24 05:14:24;;;;;;;159.07;151.02;;;25.30;99.90;;;;;;5034632;28;20470;-79
2023/08/24 05:16:50;;;;;;;209.45;198.75;;;25.10;99.90;;;;;;5033859;28;20037;-79
2023/08/24 05:19:17;;;;;;;130.63;123.70;;;25.10;99.90;;;;;;5034654;28;20033;-79
2023/08/24 05:21:43;;;;;;;170.57;161.98;;;25.10;99.90;;;;;;5034384;28;20085;-79
2023/08/24 05:24:09;;;;;;;203.77;193.57;;;25.20;99.90;;;;;;5034335;28;20026;-79
2023/08/24 05:26:35;;;;;;;175.57;166.35;;;25.20;99.90;;;;;;5034187;28;20037;-79
2023/08/24 05:29:01;;;;;;;147.52;139.88;;;25.30;99.90;;;;;;5034390;28;20033;-80
2023/08/24 05:31:27;;;;;;;130.27;123.53;;;25.20;99.90;;;;;;5033633;28;20109;-79
2023/08/24 05:33:53;;;;;;;180.65;171.35;;;25.10;99.90;;;;;;5034328;28;20038;-79
2023/08/24 05:36:19;;;;;;;160.10;151.45;;;25.20;99.90;;;;;;5034367;28;20490;-79
2023/08/24 05:38:46;;;;;;;157.52;149.32;;;25.30;99.90;;;;;;5033883;28;20037;-79
2023/08/24 05:41:13;;;;;;;173.10;163.93;;;25.30;99.90;;;;;;5034791;28;20057;-79
2023/08/24 05:43:40;;;;;;;163.07;154.73;;;25.40;99.90;;;;;;5034265;28;20505;-79
2023/08/24 05:46:06;;;;;;;162.20;153.80;;;25.20;99.90;;;;;;5033395;28;20064;-79
2023/08/24 05:48:32;;;;;;;153.32;145.68;;;25.20;99.90;;;;;;5034115;28;20025;-80
2023/08/24 05:50:58;;;;;;;196.50;186.57;;;24.90;99.90;;;;;;5033685;28;20097;-80
2023/08/24 05:53:24;;;;;;;168.38;160.02;;;24.80;99.90;;;;;;5033590;28;20041;-79
2023/08/24 05:55:50;;;;;;;209.25;198.77;;;24.80;99.90;;;;;;5033526;28;20037;-80
2023/08/24 05:58:16;;;;;;;186.32;176.93;;;24.90;99.90;;;;;;5033921;28;20030;-80
2023/08/24 06:00:42;;;;;;;200.45;190.43;;;24.90;99.90;;;;;;5033184;28;20032;-80
2023/08/24 06:03:08;;;;;;;182.55;173.40;;;25.00;99.90;;;;;;5033690;28;20406;-80
2023/08/24 06:05:35;;;;;;;171.00;162.18;;;25.00;99.90;;;;;;5033700;28;20036;-80
2023/08/24 06:08:01;;;;;;;184.70;174.88;;;25.10;99.90;;;;;;5033505;28;20451;-80
2023/08/24 06:10:27;;;;;;;248.63;235.93;;;25.30;99.90;;;;;;5033378;28;20037;-81
2023/08/24 06:12:53;;;;;;;241.52;229.35;;;25.70;99.90;;;;;;5033480;28;20041;-80
2023/08/24 06:15:20;;;;;;;299.35;279.67;;;25.80;99.90;;;;;;5033243;28;20060;-80
2023/08/24 06:17:47;;;;;;;400.80;377.33;;;25.70;99.90;;;;;;5033349;28;20702;-80
2023/08/24 06:20:13;;;;;;;323.35;306.65;;;25.70;99.90;;;;;;5032636;28;20398;-79
2023/08/24 06:22:39;;;;;;;415.67;392.25;;;25.70;99.90;;;;;;5033116;28;20045;-80
2023/08/24 06:25:08;;;;;;;434.92;410.10;;;25.70;99.90;;;;;;5033442;28;20037;-79
2023/08/24 06:27:35;;;;;;;447.13;421.52;;;25.90;99.90;;;;;;5033226;28;20049;-80
2023/08/24 06:30:03;;;;;;;336.15;317.85;;;25.90;99.90;;;;;;5033378;28;20048;-79
2023/08/24 06:32:29;;;;;;;210.15;199.40;;;26.00;99.90;;;;;;5031355;28;20045;-79
2023/08/24 06:34:55;;;;;;;229.55;217.90;;;25.90;99.90;;;;;;5032841;28;20514;-80
2023/08/24 06:37:21;;;;;;;200.45;190.27;;;25.90;99.90;;;;;;5032861;28;20037;-78
2023/08/24 06:39:47;;;;;;;199.73;189.68;;;25.80;99.90;;;;;;5032918;28;20034;-79
2023/08/24 06:42:13;;;;;;;255.35;242.30;;;25.70;99.90;;;;;;5032913;28;20037;-80
2023/08/24 06:44:40;;;;;;;265.10;251.30;;;25.60;99.90;;;;;;5033135;28;20038;-77
2023/08/24 06:47:06;;;;;;;379.60;358.55;;;25.50;99.90;;;;;;5032456;28;20402;-79
2023/08/24 06:49:32;;;;;;;323.65;306.65;;;25.50;99.90;;;;;;5032445;28;20044;-78
2023/08/24 06:51:58;;;;;;;342.50;324.23;;;25.40;99.90;;;;;;5032402;28;20042;-79
2023/08/24 06:54:24;;;;;;;420.80;397.17;;;25.20;99.90;;;;;;5031487;28;20049;-80
2023/08/24 06:56:50;;;;;;;384.10;362.85;;;25.20;99.90;;;;;;5032399;28;20394;-80
2023/08/24 06:59:16;;;;;;;387.02;366.00;;;25.20;99.90;;;;;;5032844;28;20029;-79
2023/08/24 07:01:42;;;;;;;357.88;338.40;;;25.20;99.90;;;;;;5031831;28;20372;-79
2023/08/24 07:04:08;;;;;;;317.35;300.67;;;25.10;99.90;;;;;;5032395;28;20029;-77
2023/08/24 07:06:34;;;;;;;294.17;278.23;;;25.00;99.90;;;;;;5032538;28;20044;-78
2023/08/24 07:09:03;;;;;;;373.30;353.23;;;25.10;99.90;;;;;;5032557;28;20033;-78
2023/08/24 07:11:29;;;;;;;378.25;357.40;;;25.00;99.90;;;;;;5032876;28;20046;-79
2023/08/24 07:13:55;;;;;;;296.27;280.73;;;24.90;99.90;;;;;;5033132;28;20045;-77
2023/08/24 07:16:21;;;;;;;340.90;322.10;;;24.90;99.90;;;;;;5032081;28;20042;-79
2023/08/24 07:18:47;;;;;;;343.58;324.83;;;25.00;99.90;;;;;;5032368;28;20459;-79
2023/08/24 07:21:14;;;;;;;382.08;361.00;;;25.00;99.90;;;;;;5032103;28;20033;-79
2023/08/24 07:23:40;;;;;;;351.25;332.25;;;25.10;99.90;;;;;;5032299;28;20048;-80
2023/08/24 07:26:08;;;;;;;402.90;380.13;;;25.30;99.90;;;;;;5032381;28;20040;-79
2023/08/24 07:28:34;;;;;;;487.10;457.67;;;25.40;99.90;;;;;;5032136;28;20042;-80
2023/08/24 07:31:08;;;;;;;402.05;378.83;;;25.50;99.90;;;;;;5031359;28;20040;-80
2023/08/24 07:33:34;;;;;;;399.38;376.42;;;25.60;99.90;;;;;;5031218;28;20497;-80
2023/08/24 07:36:04;;;;;;;431.80;406.83;;;25.80;99.90;;;;;;5030818;28;20053;-79
2023/08/24 07:38:30;;;;;;;506.08;475.00;;;25.90;99.90;;;;;;5032255;28;20045;-79
2023/08/24 07:40:57;;;;;;;488.48;458.85;;;26.00;99.90;;;;;;5032104;28;20025;-80
2023/08/24 07:43:24;;;;;;;438.30;412.13;;;26.00;99.90;;;;;;5032443;28;20037;-80
2023/08/24 07:45:51;;;;;;;436.42;410.52;;;26.10;99.90;;;;;;5031972;28;20462;-80
2023/08/24 07:48:17;;;;;;;442.40;414.98;;;26.10;99.90;;;;;;5031888;28;20057;-79
2023/08/24 07:50:43;;;;;;;430.13;405.33;;;26.20;99.90;;;;;;5031924;28;20029;-80
2023/08/24 07:53:10;;;;;;;393.15;371.13;;;26.20;99.90;;;;;;5032067;28;20509;-80
2023/08/24 07:55:36;;;;;;;280.23;265.60;;;26.10;99.90;;;;;;5031726;28;20022;-80
2023/08/24 07:58:03;;;;;;;369.23;348.45;;;26.10;99.90;;;;;;5032055;28;20379;-80
2023/08/24 08:00:29;;;;;;;383.58;362.15;;;26.10;99.90;;;;;;5030856;28;20029;-80
2023/08/24 08:02:56;;;;;;;385.05;363.63;;;26.10;99.90;;;;;;5031512;28;20030;-79
2023/08/24 08:05:22;;;;;;;397.00;374.85;;;26.10;99.90;;;;;;5032159;28;20044;-79
2023/08/24 08:07:48;;;;;;;419.33;395.60;;;26.10;99.90;;;;;;5030779;28;20037;-79
2023/08/24 08:10:17;;;;;;;356.65;337.17;;;26.20;99.90;;;;;;5030671;28;20033;-80
2023/08/24 08:12:43;;;;;;;299.52;283.65;;;26.20;99.90;;;;;;5032392;28;20390;-79
2023/08/24 08:15:09;;;;;;;407.42;385.02;;;26.20;99.90;;;;;;5031452;28;20029;-79
2023/08/24 08:17:35;;;;;;;353.38;335.23;;;26.20;99.90;;;;;;5031359;28;20033;-79
2023/08/24 08:20:02;;;;;;;373.33;353.27;;;26.10;99.90;;;;;;5031895;28;20064;-79
2023/08/24 08:22:29;;;;;;;425.83;402.48;;;26.00;99.90;;;;;;5031463;28;20049;-79
2023/08/24 08:24:56;;;;;;;365.15;345.02;;;26.00;99.90;;;;;;5032023;28;20041;-79
2023/08/24 08:27:23;;;;;;;401.90;379.17;;;26.00;99.90;;;;;;5031444;28;20045;-78
2023/08/24 08:29:49;;;;;;;369.58;349.35;;;26.00;99.90;;;;;;5031976;28;20044;-78
2023/08/24 08:32:16;;;;;;;394.15;372.13;;;26.00;99.90;;;;;;5030749;28;20040;-79
2023/08/24 08:34:42;;;;;;;197.52;187.23;;;25.90;99.90;;;;;;5031710;28;20038;-78
2023/08/24 08:37:08;;;;;;;136.88;129.55;;;25.80;99.90;;;;;;5031610;28;20048;-78
2023/08/24 08:39:34;;;;;;;94.53;89.32;;;25.70;99.90;;;;;;5032085;28;20053;-78
2023/08/24 08:42:01;;;;;;;117.47;111.13;;;25.70;99.90;;;;;;5031588;28;20037;-78
2023/08/24 08:44:31;;;;;;;128.23;121.18;;;25.50;99.90;;;;;;5031790;28;20021;-78
2023/08/24 08:46:57;;;;;;;111.05;104.60;;;25.50;99.90;;;;;;5033212;28;20025;-79
2023/08/24 08:49:23;;;;;;;122.10;115.80;;;25.30;99.90;;;;;;5035453;28;20474;-79
2023/08/24 08:51:49;;;;;;;115.88;109.50;;;24.90;99.90;;;;;;5035090;28;20030;-78
2023/08/24 08:54:16;;;;;;;420.25;392.13;;;24.60;99.90;;;;;;5035324;28;20049;-78
2023/08/24 08:56:42;;;;;;;723.40;670.20;;;24.70;99.90;;;;;;5033962;28;20018;-78
2023/08/24 08:59:08;;;;;;;389.05;366.70;;;24.90;99.90;;;;;;5035310;28;20056;-79
2023/08/24 09:01:35;;;;;;;507.65;476.42;;;24.80;99.90;;;;;;5033189;28;20040;-78
2023/08/24 09:04:01;;;;;;;468.60;440.40;;;24.70;99.90;;;;;;5034946;28;20038;-78
2023/08/24 09:06:27;;;;;;;338.17;319.45;;;24.90;99.90;;;;;;5033341;28;20034;-80
2023/08/24 09:08:53;;;;;;;308.38;291.35;;;24.80;99.90;;;;;;5033809;28;20386;-79
2023/08/24 09:11:19;;;;;;;387.48;365.05;;;24.40;99.90;;;;;;5033741;28;20036;-78
2023/08/24 09:13:46;;;;;;;315.10;297.27;;;24.30;99.90;;;;;;5034970;28;20398;-78
2023/08/24 09:16:16;;;;;;;347.15;327.92;;;24.40;99.90;;;;;;5034086;28;20038;-78
2023/08/24 09:18:45;;;;;;;326.02;307.98;;;24.20;99.90;;;;;;5034596;28;20052;-78
2023/08/24 09:21:12;;;;;;;383.73;361.60;;;24.10;99.90;;;;;;5034701;28;20045;-78
2023/08/24 09:23:45;;;;;;;465.98;437.13;;;24.00;99.90;;;;;;5034622;28;20366;-79
2023/08/24 09:26:11;;;;;;;413.05;387.77;;;23.80;99.90;;;;;;5033487;28;20471;-78
2023/08/24 09:28:39;;;;;;;567.80;528.63;;;23.80;99.90;;;;;;5033479;28;20391;-78
2023/08/24 09:31:05;;;;;;;507.67;473.77;;;23.80;99.90;;;;;;5033698;28;20493;-78
2023/08/24 09:33:31;;;;;;;678.33;630.30;;;23.90;99.90;;;;;;5034372;28;20045;-77
2023/08/24 09:36:04;;;;;;;416.38;385.38;;;24.00;99.90;;;;;;5033232;28;20387;-77
2023/08/24 09:38:30;;;;;;;526.67;484.25;;;24.10;99.90;;;;;;5034208;28;20390;-77
2023/08/24 09:40:56;;;;;;;490.25;451.33;;;24.30;99.90;;;;;;5034673;28;20033;-77
2023/08/24 09:43:23;;;;;;;611.38;563.08;;;24.40;99.90;;;;;;5033703;28;20395;-77
2023/08/24 09:45:53;;;;;;;766.65;698.92;;;24.60;99.90;;;;;;5033713;28;20045;-77
2023/08/24 09:48:19;;;;;;;675.17;620.45;;;24.60;99.90;;;;;;5032694;28;20047;-77
2023/08/24 09:50:46;;;;;;;540.08;497.85;;;24.70;99.90;;;;;;5034030;28;20101;-77
2023/08/24 09:53:20;;;;;;;916.78;831.03;;;24.70;99.90;;;;;;5033863;28;20038;-77
2023/08/24 09:55:55;;;;;;;974.60;859.67;;;24.80;99.90;;;;;;5033253;28;20032;-78
2023/08/24 09:58:22;;;;;;;800.70;713.35;;;24.90;99.90;;;;;;5032678;28;20068;-78
2023/08/24 10:00:48;;;;;;;376.45;348.23;;;24.80;99.90;;;;;;5032226;28;20398;-78
2023/08/24 10:03:21;;;;;;;741.33;666.92;;;24.50;99.90;;;;;;5032697;28;20030;-78
2023/08/24 10:05:53;;;;;;;636.90;575.92;;;24.00;99.90;;;;;;5032173;28;20041;-77
2023/08/24 10:08:26;;;;;;;532.97;485.60;;;23.70;99.90;;;;;;5032632;28;20033;-78
2023/08/24 10:10:58;;;;;;;305.73;285.92;;;23.60;99.90;;;;;;5032499;28;20052;-78
2023/08/24 10:13:40;;;;;;;286.90;265.17;;;23.70;99.90;;;;;;5033380;28;20048;-79
2023/08/24 10:16:06;;;;;;;348.45;318.45;;;23.80;99.90;;;;;;5033322;28;20025;-79
2023/08/24 10:18:32;;;;;;;440.52;405.08;;;23.50;99.90;;;;;;5032389;28;20034;-78
2023/08/24 10:20:58;;;;;;;623.47;567.20;;;23.30;99.90;;;;;;5032400;28;20383;-79
2023/08/24 10:23:24;;;;;;;281.05;257.17;;;23.20;99.90;;;;;;5032555;28;20029;-77
2023/08/24 10:25:51;;;;;;;630.25;569.10;;;23.30;99.90;;;;;;5033364;28;20029;-78
2023/08/24 10:28:17;;;;;;;621.88;554.58;;;23.20;99.90;;;;;;5033034;28;20042;-78
2023/08/24 10:30:44;;;;;;;938.47;835.40;;;23.40;99.90;;;;;;5015237;28;20025;-78
2023/08/24 10:33:11;;;;;;;775.63;708.88;;;23.50;99.90;;;;;;5032072;28;20036;-77
2023/08/24 10:35:38;;;;;;;1078.85;924.35;;;23.70;99.90;;;;;;5031847;28;20034;-78
2023/08/24 10:38:05;;;;;;;1084.30;945.33;;;23.70;99.90;;;;;;5032155;28;20029;-78
2023/08/24 10:40:35;;;;;;;1078.38;940.30;;;23.70;99.90;;;;;;5033233;28;20265;-78
2023/08/24 10:43:05;;;;;;;844.42;762.20;;;23.80;99.90;;;;;;5032802;28;20021;-77
2023/08/24 10:45:57;;;;;;;912.30;827.95;;;23.70;99.90;;;;;;5032658;28;20048;-79
2023/08/24 10:48:30;;;;;;;901.03;815.10;;;23.40;99.90;;;;;;5031251;28;20041;-78
2023/08/24 10:51:21;;;;;;;920.60;833.63;;;23.20;99.90;;;;;;5030281;28;20033;-78
2023/08/24 10:53:48;;;;;;;895.70;811.05;;;23.10;99.90;;;;;;5028127;28;20383;-79
2023/08/24 10:56:16;;;;;;;886.30;808.47;;;23.00;99.90;;;;;;5032538;28;20025;-79
2023/08/24 10:58:44;;;;;;;988.45;901.30;;;22.90;99.90;;;;;;5033105;28;20022;-79
2023/08/24 11:01:21;;;;;;;877.83;798.45;;;22.80;99.90;;;;;;5031881;28;20033;-79
2023/08/24 11:03:52;;;;;;;933.33;852.33;;;22.90;99.90;;;;;;5032691;28;20029;-80
2023/08/24 11:06:22;;;;;;;963.72;878.78;;;22.80;99.90;;;;;;5031665;28;20041;-78
2023/08/24 11:08:49;;;;;;;794.90;726.67;;;22.90;99.90;;;;;;5033073;28;20034;-78
2023/08/24 11:11:21;;;;;;;784.35;721.58;;;23.10;99.90;;;;;;5032412;28;20045;-80
2023/08/24 11:14:36;;;;;;;879.08;805.65;;;23.00;99.90;;;;;;5031376;28;20041;-80
2023/08/24 11:17:16;;;;;;;675.28;625.28;;;22.90;99.90;;;;;;5031773;28;20398;-79
2023/08/24 11:19:48;;;;;;;603.05;558.22;;;22.90;99.90;;;;;;5031534;28;20049;-79
2023/08/24 11:22:16;;;;;;;613.70;567.38;;;23.00;99.90;;;;;;5031552;28;20021;-79
2023/08/24 11:24:42;;;;;;;792.55;722.17;;;23.00;99.90;;;;;;5032462;28;20036;-79
2023/08/24 11:27:09;;;;;;;866.08;790.28;;;23.10;99.90;;;;;;5032413;28;20029;-80
2023/08/24 11:29:35;;;;;;;806.47;741.72;;;23.20;99.90;;;;;;5032338;28;20037;-79
2023/08/24 11:32:01;;;;;;;632.30;582.83;;;23.20;99.90;;;;;;5030759;28;20479;-79
2023/08/24 11:34:28;;;;;;;56.65;53.28;;;23.20;99.90;;;;;;5032325;28;20052;-79
2023/08/24 11:36:54;;;;;;;55.22;51.80;;;23.40;99.90;;;;;;5032369;28;20026;-79
2023/08/24 11:39:22;;;;;;;57.95;54.53;;;23.60;99.90;;;;;;5032639;28;20037;-78
2023/08/24 11:42:04;;;;;;;51.20;48.38;;;23.60;99.90;;;;;;5032339;28;20278;-79
2023/08/24 11:44:46;;;;;;;48.67;45.70;;;23.70;99.90;;;;;;5032551;28;20068;-79
2023/08/24 11:47:12;;;;;;;50.53;47.47;;;23.80;99.90;;;;;;5031954;28;20056;-79
2023/08/24 11:49:38;;;;;;;41.83;38.92;;;23.60;99.90;;;;;;5032256;28;20025;-79
2023/08/24 11:52:05;;;;;;;78.30;74.10;;;23.80;99.90;;;;;;5031099;28;20033;-80
2023/08/24 11:54:34;;;;;;;67.28;63.75;;;23.70;99.90;;;;;;5031851;28;20041;-79
2023/08/24 11:57:00;;;;;;;71.20;67.32;;;23.50;99.90;;;;;;5032142;28;20033;-78
2023/08/24 11:59:26;;;;;;;65.65;62.13;;;23.60;99.90;;;;;;5030938;28;20459;-79
2023/08/24 12:01:52;;;;;;;98.07;93.13;;;23.80;99.90;;;;;;5030056;28;20029;-79
2023/08/24 12:04:19;;;;;;;114.22;108.35;;;23.60;99.90;;;;;;5030772;28;20041;-80
2023/08/24 12:06:45;;;;;;;124.03;117.95;;;23.30;99.90;;;;;;5030971;28;20036;-79
2023/08/24 12:09:11;;;;;;;107.25;102.03;;;23.10;99.90;;;;;;5031928;28;20387;-79